Time;durP1;ratioP1;P1;durP2;ratioP2;P2;SDS_P1;SDS_P2;PMS_P1;PMS_P2;Temp;Humidity;BMP_temperature;BMP_pressure;BME280_temperature;BME280_humidity;BME280_pressure;Samples;Min_cycle;Max_cycle;Signal;HPM_P1;HPM_P2
2021/04/07 04:53:15;;;;;;;26.17;13.40;;;;;;;0.27;100.00;97292.09;1758856;79;21197;-54
2021/04/07 04:55:46;;;;;;;24.67;14.20;;;;;;;0.28;100.00;97284.62;1771649;80;21197;-53
2021/04/07 04:58:18;;;;;;;24.32;13.72;;;;;;;0.39;100.00;97291.14;1726578;83;21190;-54
2021/04/07 05:00:50;;;;;;;25.17;14.10;;;;;;;0.51;100.00;97294.87;1770868;80;21149;-58
2021/04/07 05:03:26;;;;;;;23.67;14.30;;;;;;;0.62;100.00;97300.08;1768346;81;21174;-52
2021/04/07 05:06:06;;;;;;;24.63;14.18;;;;;;;0.67;100.00;97296.45;1758089;81;21281;-47
2021/04/07 05:09:10;;;;;;;24.87;14.23;;;;;;;0.70;100.00;97302.59;1741887;81;21217;-55
2021/04/07 05:11:42;;;;;;;23.70;14.50;;;;;;;0.74;100.00;97299.91;1765633;80;21158;-58
2021/04/07 05:14:30;;;;;;;27.27;15.33;;;;;;;0.73;100.00;97304.30;1769376;80;21325;-55
2021/04/07 05:17:03;;;;;;;24.50;14.07;;;;;;;0.69;100.00;97301.78;1759925;80;21608;-53
2021/04/07 05:19:35;;;;;;;22.40;13.27;;;;;;;0.63;100.00;97290.02;1770119;80;21159;-56
2021/04/07 05:22:06;;;;;;;23.50;12.90;;;;;;;0.53;100.00;97300.20;1768027;80;21174;-52
2021/04/07 05:24:37;;;;;;;;;;;;;;;0.47;100.00;97298.83;1767355;80;21107;-58
2021/04/07 05:27:08;;;;;;;23.07;13.15;;;;;;;0.38;100.00;97309.78;1743496;81;20146;-55
2021/04/07 05:29:38;;;;;;;24.53;13.10;;;;;;;0.30;100.00;97304.70;1760091;81;21155;-62
2021/04/07 05:32:08;;;;;;;22.30;12.27;;;;;;;0.28;100.00;97304.56;1768054;81;21163;-56
2021/04/07 05:34:37;;;;;;;21.53;12.30;;;;;;;0.23;100.00;97308.52;1695439;83;21183;-57
2021/04/07 05:37:09;;;;;;;22.95;11.93;;;;;;;0.22;100.00;97305.59;1772158;80;21166;-53
2021/04/07 05:39:45;;;;;;;21.00;12.03;;;;;;;0.19;100.00;97294.30;1755867;81;21162;-55
2021/04/07 05:42:16;;;;;;;22.87;13.73;;;;;;;0.16;100.00;97309.39;1757707;80;21182;-55
2021/04/07 05:44:48;;;;;;;22.07;12.47;;;;;;;0.15;100.00;97306.00;1756078;80;21563;-56
2021/04/07 05:47:20;;;;;;;21.70;12.03;;;;;;;0.21;100.00;97303.98;1765832;80;21565;-55
2021/04/07 05:49:51;;;;;;;23.57;13.13;;;;;;;0.26;100.00;97304.25;1703311;83;21186;-51
2021/04/07 05:52:22;;;;;;;22.37;11.63;;;;;;;0.27;100.00;97312.83;1747538;81;21609;-55
2021/04/07 05:54:55;;;;;;;23.13;11.83;;;;;;;0.30;100.00;97309.09;1739785;82;21150;-51
2021/04/07 05:57:24;;;;;;;26.83;13.23;;;;;;;0.29;100.00;97316.06;1688879;85;21199;-52
2021/04/07 05:59:54;;;;;;;21.70;12.03;;;;;;;0.33;100.00;97321.18;1690953;85;21155;-60
2021/04/07 06:02:25;;;;;;;21.03;11.77;;;;;;;0.34;100.00;97326.67;1690887;85;21211;-55
2021/04/07 06:04:59;;;;;;;22.07;12.10;;;;;;;0.34;100.00;97324.58;1677055;83;21594;-57
2021/04/07 06:07:29;;;;;;;20.40;10.80;;;;;;;0.36;100.00;97317.44;1689172;84;21128;-55
2021/04/07 06:09:58;;;;;;;25.40;13.50;;;;;;;0.37;100.00;97325.03;1741679;82;21332;-54
2021/04/07 06:12:33;;;;;;;22.43;12.17;;;;;;;0.42;100.00;97338.26;1741060;82;21090;-58
2021/04/07 06:15:05;;;;;;;22.97;12.50;;;;;;;0.45;100.00;97326.71;1740230;82;21558;-57
2021/04/07 06:17:36;;;;;;;20.83;11.40;;;;;;;0.49;100.00;97335.74;1738566;81;21199;-53
2021/04/07 06:20:09;;;;;;;20.53;10.97;;;;;;;0.58;100.00;97328.69;1737065;81;21360;-52
2021/04/07 06:22:39;;;;;;;20.67;11.50;;;;;;;0.67;100.00;97321.89;1730728;81;21159;-54
2021/04/07 06:25:13;;;;;;;20.80;11.17;;;;;;;0.72;100.00;97340.31;1732521;81;21190;-54
2021/04/07 06:27:42;;;;;;;21.25;11.25;;;;;;;0.72;100.00;97343.40;1716246;81;21173;-49
2021/04/07 06:30:13;;;;;;;19.53;10.93;;;;;;;0.70;100.00;97341.49;1706834;81;21338;-56
2021/04/07 06:32:45;;;;;;;21.05;11.08;;;;;;;0.73;100.00;97346.30;1758903;81;21170;-57
2021/04/07 06:35:14;;;;;;;20.82;10.35;;;;;;;0.81;100.00;97355.78;1732609;81;21276;-56
2021/04/07 06:37:44;;;;;;;20.73;11.00;;;;;;;0.87;100.00;97354.56;1717039;82;21222;-53
2021/04/07 06:40:14;;;;;;;19.73;10.80;;;;;;;0.89;100.00;97358.27;1726676;81;21186;-50
2021/04/07 06:42:43;;;;;;;20.17;10.47;;;;;;;0.90;100.00;97361.96;1722244;82;21281;-55
2021/04/07 06:45:14;;;;;;;18.80;10.93;;;;;;;0.89;100.00;97347.38;1730188;81;21125;-55
2021/04/07 06:47:43;;;;;;;20.00;11.60;;;;;;;0.84;100.00;97352.81;1741957;82;22290;-53
2021/04/07 06:50:14;;;;;;;20.73;11.63;;;;;;;0.81;99.94;97355.29;1741272;82;21221;-49
2021/04/07 06:52:45;;;;;;;20.48;10.88;;;;;;;0.81;100.00;97344.11;1741471;82;21246;-52
2021/04/07 06:55:16;;;;;;;20.32;11.40;;;;;;;0.84;99.40;97368.38;1751420;82;21181;-46
2021/04/07 06:57:48;;;;;;;22.00;11.40;;;;;;;0.84;99.95;97362.69;1751212;82;21166;-51
2021/04/07 07:00:21;;;;;;;22.77;12.17;;;;;;;0.96;100.00;97359.93;1766936;81;21349;-48
2021/04/07 07:02:59;;;;;;;23.17;12.03;;;;;;;1.03;97.82;97357.41;1741054;81;21178;-48
2021/04/07 07:05:29;;;;;;;19.50;11.03;;;;;;;1.05;97.31;97355.45;1703010;82;21215;-55
2021/04/07 07:08:14;;;;;;;21.67;11.70;;;;;;;1.03;97.26;97374.27;1752405;82;21321;-53
2021/04/07 07:10:45;;;;;;;21.23;11.22;;;;;;;1.03;97.22;97367.78;1721828;83;21396;-59
2021/04/07 07:13:22;;;;;;;19.50;9.93;;;;;;;1.03;96.91;97367.78;1735452;83;21165;-60
2021/04/07 07:15:55;;;;;;;20.37;11.30;;;;;;;1.08;97.35;97375.02;1706820;82;21162;-49
2021/04/07 07:18:28;;;;;;;24.13;11.90;;;;;;;1.16;96.53;97383.52;1739702;82;21167;-55
2021/04/07 07:21:00;;;;;;;22.07;11.80;;;;;;;1.24;97.03;97378.20;1692276;82;21214;-50
2021/04/07 07:23:33;;;;;;;21.23;11.97;;;;;;;1.36;94.99;97381.60;1745784;82;21227;-55
2021/04/07 07:26:04;;;;;;;20.80;11.63;;;;;;;1.38;95.27;97391.30;1749066;82;21186;-53
2021/04/07 07:28:51;;;;;;;21.47;11.43;;;;;;;1.42;94.81;97388.16;1738311;81;21641;-57
2021/04/07 07:31:24;;;;;;;22.67;11.93;;;;;;;1.42;93.63;97389.45;1751387;80;22271;-55
2021/04/07 07:33:55;;;;;;;22.63;12.67;;;;;;;1.42;94.27;97402.93;1752088;82;21585;-52
2021/04/07 07:36:25;;;;;;;24.27;12.37;;;;;;;1.48;94.26;97390.00;1761043;81;21177;-52
2021/04/07 07:38:56;;;;;;;22.90;11.47;;;;;;;1.49;92.55;97399.43;1764253;81;21291;-51
2021/04/07 07:41:30;;;;;;;25.23;14.23;;;;;;;1.45;90.21;97400.78;1748499;82;21169;-51
2021/04/07 07:44:04;;;;;;;26.93;14.07;;;;;;;1.35;90.69;97402.06;1760115;81;21189;-56
2021/04/07 07:46:33;;;;;;;25.70;13.27;;;;;;;1.32;91.73;97383.78;1764159;81;21720;-55
2021/04/07 07:49:16;;;;;;;28.00;13.77;;;;;;;1.38;91.67;97393.89;1763168;81;21331;-62
2021/04/07 07:51:49;;;;;;;26.13;14.43;;;;;;;1.41;91.52;97405.22;1764011;80;21279;-54
2021/04/07 07:54:24;;;;;;;24.13;12.90;;;;;;;1.38;91.97;97396.02;1756236;81;21624;-55
2021/04/07 07:56:53;;;;;;;25.30;13.78;;;;;;;1.42;91.98;97412.82;1719152;82;21158;-52
2021/04/07 07:59:33;;;;;;;26.20;13.80;;;;;;;1.39;91.08;97421.49;1726528;82;21605;-50
2021/04/07 08:04:56;;;;;;;26.67;14.20;;;;;;;1.52;91.22;97408.13;1780004;79;23156;-53
2021/04/07 08:07:31;;;;;;;27.40;13.17;;;;;;;1.53;90.15;97408.94;1723892;82;21138;-56
2021/04/07 08:10:03;;;;;;;25.57;14.20;;;;;;;1.54;90.32;97404.05;1724921;82;21605;-49
2021/04/07 08:12:33;;;;;;;30.40;15.43;;;;;;;1.55;90.59;97410.37;1758634;80;21189;-55
2021/04/07 08:15:05;;;;;;;28.50;16.77;;;;;;;1.53;89.96;97421.92;1726874;80;21201;-53
2021/04/07 08:17:36;;;;;;;30.20;15.70;;;;;;;1.48;89.39;97408.69;1746679;80;21154;-53
2021/04/07 08:20:11;;;;;;;26.97;14.00;;;;;;;1.46;89.15;97406.28;1768615;80;21604;-56
2021/04/07 08:22:42;;;;;;;27.07;14.47;;;;;;;1.42;88.46;97397.73;1752507;80;21158;-59
2021/04/07 08:25:12;;;;;;;27.67;14.30;;;;;;;1.41;88.57;97418.20;1768167;80;21430;-56
2021/04/07 08:27:44;;;;;;;26.77;14.67;;;;;;;1.48;89.03;97417.77;1713027;83;21581;-57
2021/04/07 08:30:14;;;;;;;29.13;14.50;;;;;;;1.59;86.56;97419.88;1733154;82;21194;-58
2021/04/07 08:32:46;;;;;;;29.10;15.63;;;;;;;1.62;85.62;97432.52;1704770;84;21364;-57
2021/04/07 08:35:23;;;;;;;27.17;15.57;;;;;;;1.66;87.70;97427.73;1663529;84;21756;-57
2021/04/07 08:38:04;;;;;;;37.17;19.70;;;;;;;1.76;85.96;97429.03;1635046;85;21196;-53
2021/04/07 08:40:44;;;;;;;30.37;16.40;;;;;;;1.81;87.38;97435.77;1710215;84;22229;-56
2021/04/07 08:43:17;;;;;;;28.00;15.50;;;;;;;1.92;87.73;97434.97;1693528;84;21194;-57
2021/04/07 08:45:49;;;;;;;27.50;15.17;;;;;;;2.00;86.29;97439.52;1752813;80;22358;-54
2021/04/07 08:48:21;;;;;;;29.83;15.53;;;;;;;2.00;85.65;97425.23;1708723;82;21362;-56
2021/04/07 08:51:07;;;;;;;29.90;17.03;;;;;;;1.97;84.62;97444.31;1699987;83;21161;-52
2021/04/07 08:53:42;;;;;;;35.17;17.80;;;;;;;1.92;85.30;97437.06;1720349;83;21216;-62
2021/04/07 08:56:30;;;;;;;27.20;15.57;;;;;;;2.01;87.50;97429.45;1714244;82;21128;-59
2021/04/07 08:59:02;;;;;;;26.90;15.60;;;;;;;2.09;83.92;97446.70;1709969;82;21198;-56
2021/04/07 09:01:34;;;;;;;31.27;17.80;;;;;;;2.05;82.14;97425.47;1738234;82;21120;-61
2021/04/07 09:04:12;;;;;;;32.30;17.53;;;;;;;2.03;84.63;97449.56;1715313;82;21181;-57
2021/04/07 09:06:59;;;;;;;34.60;18.30;;;;;;;2.06;84.53;97447.06;1712200;82;21565;-57
2021/04/07 09:09:37;;;;;;;30.53;17.37;;;;;;;2.17;84.89;97443.95;1774918;79;23196;-55
2021/04/07 09:12:07;;;;;;;31.43;17.13;;;;;;;2.15;83.48;97451.65;1744398;80;21199;-57
2021/04/07 09:19:24;;;;;;;31.12;17.02;;;;;;;2.09;86.71;97444.91;1723070;83;21307;-57
2021/04/07 09:22:13;;;;;;;33.00;18.48;;;;;;;2.11;85.17;97449.41;1745930;82;21185;-58
2021/04/07 09:25:06;;;;;;;34.00;19.00;;;;;;;2.11;85.29;97451.21;1805751;79;23181;-58
2021/04/07 09:28:13;;;;;;;32.77;18.77;;;;;;;2.00;84.04;97456.42;1786596;80;21214;-60
2021/04/07 09:35:41;;;;;;;34.73;19.27;;;;;;;1.79;83.74;97440.36;1722095;82;21687;-59
2021/04/07 09:38:22;;;;;;;32.67;19.02;;;;;;;1.84;83.68;97461.40;1706196;84;21230;-59
2021/04/07 09:41:25;;;;;;;37.60;19.80;;;;;;;1.94;82.75;97463.66;1682177;84;21165;-58
2021/04/07 09:44:13;;;;;;;31.00;18.83;;;;;;;2.06;83.41;97455.66;1706722;82;21148;-58
2021/04/07 09:47:00;;;;;;;30.13;18.60;;;;;;;2.23;83.71;97456.20;1705252;84;21270;-57
2021/04/07 09:49:46;;;;;;;29.40;17.67;;;;;;;2.47;83.45;97453.69;1680849;82;21249;-58
2021/04/07 09:52:34;;;;;;;31.33;18.20;;;;;;;2.64;80.57;97435.98;1677058;85;21204;-56
2021/04/07 09:55:23;;;;;;;31.50;17.93;;;;;;;2.62;80.15;97452.27;1675046;85;21656;-58
2021/04/07 09:58:08;;;;;;;34.37;19.17;;;;;;;2.67;84.49;97447.30;1666643;85;21343;-56
2021/04/07 10:00:48;;;;;;;33.10;17.17;;;;;;;2.83;82.27;97446.98;1635187;86;21686;-55
2021/04/07 10:03:25;;;;;;;32.67;16.53;;;;;;;2.93;78.85;97444.05;1658658;85;21185;-59
2021/04/07 10:06:08;;;;;;;31.30;18.23;;;;;;;2.94;77.54;97440.44;1680786;85;21205;-56
2021/04/07 10:08:52;;;;;;;30.87;18.13;;;;;;;3.00;76.10;97453.98;1651352;85;21185;-58
2021/04/07 10:11:30;;;;;;;29.23;17.60;;;;;;;3.07;78.74;97440.48;1677328;85;21562;-58
2021/04/07 10:14:01;;;;;;;34.33;18.12;;;;;;;3.27;77.27;97445.78;1710584;84;21205;-59
2021/04/07 10:16:46;;;;;;;32.77;18.10;;;;;;;3.46;77.01;97442.42;1638588;86;21600;-60
2021/04/07 10:19:18;;;;;;;31.90;17.80;;;;;;;3.54;72.52;97454.45;1665983;85;21562;-57
2021/04/07 10:21:54;;;;;;;32.10;18.65;;;;;;;3.43;72.27;97450.61;1684169;84;21199;-57
2021/04/07 10:24:37;;;;;;;32.53;18.43;;;;;;;3.37;72.24;97456.61;1702060;79;21518;-60
2021/04/07 10:27:08;;;;;;;28.00;17.48;;;;;;;3.26;72.50;97455.06;1688310;84;21213;-61
2021/04/07 10:29:38;;;;;;;31.77;18.62;;;;;;;3.19;71.06;97443.33;1711077;83;21158;-60
2021/04/07 10:32:16;;;;;;;31.60;18.13;;;;;;;3.10;72.23;97454.43;1714519;83;21166;-61
2021/04/07 10:34:47;;;;;;;29.27;16.67;;;;;;;3.16;73.19;97459.36;1713130;84;21210;-61
2021/04/07 10:37:19;;;;;;;30.07;16.43;;;;;;;3.22;70.97;97469.50;1663478;85;21169;-61
2021/04/07 10:39:49;;;;;;;27.87;16.00;;;;;;;3.13;69.83;97465.74;1715236;83;21179;-63
2021/04/07 10:42:20;;;;;;;29.18;15.90;;;;;;;3.10;69.24;97460.14;1695573;84;21680;-57
2021/04/07 10:45:03;;;;;;;30.15;16.10;;;;;;;3.09;69.57;97479.34;1705489;83;21633;-56
2021/04/07 10:47:35;;;;;;;28.20;16.15;;;;;;;3.14;71.37;97463.94;1711921;83;21610;-60
2021/04/07 10:50:09;;;;;;;31.10;15.77;;;;;;;3.33;69.24;97462.43;1715037;83;21170;-58
2021/04/07 10:52:43;;;;;;;30.10;15.90;;;;;;;3.46;68.83;97476.79;1721852;82;21163;-59
2021/04/07 10:55:20;;;;;;;30.52;15.88;;;;;;;3.49;67.77;97478.98;1671262;84;21193;-59
2021/04/07 10:57:58;;;;;;;31.13;16.67;;;;;;;3.59;67.17;97458.58;1764889;79;22913;-62
2021/04/07 11:00:34;;;;;;;29.13;16.63;;;;;;;3.57;68.11;97478.83;1735531;80;21205;-60
2021/04/07 11:03:06;;;;;;;29.07;17.63;;;;;;;3.66;68.99;97480.23;1735382;80;21189;-65
2021/04/07 11:05:49;;;;;;;32.40;17.60;;;;;;;3.80;68.89;97480.28;1739105;82;21632;-61
2021/04/07 11:08:17;;;;;;;29.67;17.33;;;;;;;3.91;67.53;97486.22;1707138;82;21565;-59
2021/04/07 11:10:52;;;;;;;33.53;19.93;;;;;;;3.88;65.55;97470.96;1736979;81;21138;-62
2021/04/07 11:13:24;;;;;;;29.73;16.30;;;;;;;3.72;65.89;97478.64;1737133;80;21624;-59
2021/04/07 11:15:55;;;;;;;;;;;;;;;3.65;66.29;97478.64;1723231;82;21138;-64
2021/04/07 11:18:29;;;;;;;31.40;16.20;;;;;;;3.64;66.68;97480.94;1734981;80;20512;-60
2021/04/07 11:21:00;;;;;;;31.70;16.17;;;;;;;3.61;65.89;97477.91;1738805;80;21689;-68
2021/04/07 11:23:30;;;;;;;30.27;15.20;;;;;;;3.61;66.99;97474.01;1715339;82;21177;-60
2021/04/07 11:25:59;;;;;;;29.00;15.50;;;;;;;3.67;66.63;97491.46;1714757;82;21221;-63
2021/04/07 11:28:29;;;;;;;31.80;17.80;;;;;;;3.70;67.63;97484.06;1707140;82;21573;-61
2021/04/07 11:31:11;;;;;;;30.93;18.67;;;;;;;3.82;67.71;97484.28;1755609;82;21162;-65
2021/04/07 11:42:08;;;;;;;34.70;18.87;;;;;;;4.06;65.87;97483.41;1756029;82;21194;-64
2021/04/07 11:44:33;;;;;;;32.13;17.47;;;;;;;4.18;65.69;97485.22;1721696;82;21174;-64
2021/04/07 11:47:04;;;;;;;26.43;15.73;;;;;;;4.28;65.08;97478.81;1721593;83;21182;-58
2021/04/07 11:49:36;;;;;;;26.35;16.17;;;;;;;4.37;63.15;97483.64;1709978;82;21164;-62
2021/04/07 11:52:12;;;;;;;27.22;15.35;;;;;;;4.38;63.01;97486.55;1682176;83;21284;-57
2021/04/07 11:54:41;;;;;;;26.33;15.93;;;;;;;4.43;62.65;97486.75;1671316;83;21675;-59
2021/04/07 11:57:11;;;;;;;31.97;16.43;;;;;;;4.42;62.85;97485.14;1694312;83;21292;-56
2021/04/07 11:59:41;;;;;;;33.98;19.65;;;;;;;4.40;61.10;97478.50;1691608;84;21617;-61
2021/04/07 12:02:14;;;;;;;29.50;15.90;;;;;;;4.40;61.60;97498.88;1699328;82;21588;-61
2021/04/07 12:04:46;;;;;;;31.00;18.65;;;;;;;4.52;60.45;97485.52;1689237;84;21140;-61
2021/04/07 12:07:16;;;;;;;29.40;17.42;;;;;;;4.63;60.71;97488.52;1686804;84;21154;-59
2021/04/07 12:09:49;;;;;;;25.35;14.00;;;;;;;4.74;60.24;97469.63;1687271;84;21203;-64
2021/04/07 12:12:18;;;;;;;23.40;13.38;;;;;;;4.85;57.67;97495.62;1689798;84;21227;-64
2021/04/07 12:14:48;;;;;;;26.42;14.65;;;;;;;4.75;57.66;97488.20;1694039;82;21198;-69
2021/04/07 12:17:18;;;;;;;23.22;12.33;;;;;;;4.65;58.20;97483.41;1745014;81;21201;-62
2021/04/07 12:19:49;;;;;;;;;;;;;;;4.59;56.93;97489.45;1746827;82;21185;-65
2021/04/07 12:22:20;;;;;;;23.02;11.80;;;;;;;4.44;56.73;97484.94;1744498;82;20177;-61
2021/04/07 12:24:52;;;;;;;24.67;12.45;;;;;;;4.32;57.92;97479.52;1709130;81;21203;-58
2021/04/07 12:27:23;;;;;;;25.55;13.08;;;;;;;4.23;59.43;97463.25;1696911;84;21320;-61
2021/04/07 12:29:55;;;;;;;23.85;12.25;;;;;;;4.23;59.01;97474.99;1702361;84;21222;-59
2021/04/07 12:32:29;;;;;;;24.12;12.30;;;;;;;4.25;58.55;97478.22;1711553;82;21194;-60
2021/04/07 12:34:59;;;;;;;20.20;11.83;;;;;;;4.37;58.56;97470.59;1744091;82;21440;-70
2021/04/07 12:37:31;;;;;;;21.90;11.10;;;;;;;4.61;57.81;97488.73;1744690;81;21175;-62
2021/04/07 12:40:01;;;;;;;24.47;12.82;;;;;;;4.67;55.22;97464.93;1744809;82;21158;-56
2021/04/07 12:42:31;;;;;;;25.95;13.58;;;;;;;4.61;56.09;97476.19;1717314;81;21558;-61
2021/04/07 12:45:02;;;;;;;25.43;14.33;;;;;;;4.71;58.21;97474.77;1674145;85;21175;-63
2021/04/07 12:47:34;;;;;;;23.62;12.98;;;;;;;4.97;58.19;97469.17;1645006;84;21632;-62
2021/04/07 12:50:04;;;;;;;23.92;11.90;;;;;;;5.33;56.13;97464.70;1703043;84;21127;-64
2021/04/07 12:52:34;;;;;;;26.27;12.10;;;;;;;5.67;54.19;97473.19;1680728;84;21179;-61
2021/04/07 12:55:07;;;;;;;22.67;12.55;;;;;;;5.92;54.62;97466.24;1675638;85;21225;-56
2021/04/07 12:57:36;;;;;;;27.87;14.15;;;;;;;6.09;53.80;97459.99;1665530;85;21618;-62
2021/04/07 13:00:07;;;;;;;23.95;12.90;;;;;;;6.13;52.06;97463.25;1642690;86;21168;-63
2021/04/07 13:02:39;;;;;;;28.02;13.58;;;;;;;6.18;53.68;97462.62;1656529;86;21221;-62
2021/04/07 13:05:10;;;;;;;;;;;;;;;6.33;53.69;97463.11;1670064;84;21169;-61
2021/04/07 13:07:40;;;;;;;22.52;12.53;;;;;;;6.46;52.78;97458.77;1684673;85;20131;-61
2021/04/07 13:10:12;;;;;;;;;;;;;;;6.43;51.94;97467.87;1677382;85;21657;-63
2021/04/07 13:12:42;;;;;;;20.68;10.75;;;;;;;6.13;50.33;97487.31;1674889;86;20140;-61
2021/04/07 13:15:13;;;;;;;19.98;11.28;;;;;;;5.68;51.26;97477.41;1675178;86;21412;-62
2021/04/07 13:17:44;;;;;;;24.95;12.15;;;;;;;5.35;51.78;97466.62;1655897;86;21199;-62
2021/04/07 13:20:18;;;;;;;23.87;11.80;;;;;;;5.09;53.11;97465.42;1658312;86;21190;-65
2021/04/07 13:22:46;;;;;;;22.20;11.88;;;;;;;5.03;53.38;97474.88;1658278;86;21427;-64
2021/04/07 13:25:18;;;;;;;23.98;12.50;;;;;;;5.10;53.70;97471.73;1658495;86;21167;-60
2021/04/07 13:27:50;;;;;;;22.67;11.55;;;;;;;5.12;52.42;97476.77;1658393;86;21325;-70
2021/04/07 13:30:20;;;;;;;24.05;12.07;;;;;;;5.10;51.88;97468.32;1658624;86;21186;-62
2021/04/07 13:35:30;;;;;;;21.80;10.70;;;;;;;5.20;53.16;97471.30;1624504;85;21951;-65
2021/04/07 13:38:00;;;;;;;22.22;11.05;;;;;;;5.19;51.91;97461.36;1662413;84;21343;-70
2021/04/07 13:40:34;;;;;;;25.45;11.65;;;;;;;5.09;51.75;97472.75;1634214;86;21233;-60
2021/04/07 13:43:00;;;;;;;20.77;9.95;;;;;;;4.97;52.22;97491.37;1642817;87;21200;-67
2021/04/07 13:45:33;;;;;;;18.40;8.90;;;;;;;4.89;56.69;97489.80;1643978;87;21219;-60
2021/04/07 13:50:35;;;;;;;11.25;5.35;;;;;;;4.37;62.06;97495.38;1639404;86;21199;-59
2021/04/07 13:53:05;;;;;;;6.95;3.95;;;;;;;4.09;62.96;97499.48;1661153;85;21626;-63
2021/04/07 13:55:38;;;;;;;9.08;3.92;;;;;;;3.84;64.37;97520.58;1683753;85;21209;-62
2021/04/07 13:58:06;;;;;;;;;;;;;;;3.71;62.59;97518.24;1653262;85;21170;-64
2021/04/07 14:00:35;;;;;;;11.40;5.37;;;;;;;3.64;63.43;97511.41;1612882;87;20605;-61
